Time;durP1;ratioP1;P1;durP2;ratioP2;P2;SDS_P1;SDS_P2;PMS_P1;PMS_P2;Temp;Humidity;BMP_temperature;BMP_pressure;BME280_temperature;BME280_humidity;BME280_pressure;Samples;Min_cycle;Max_cycle;Signal;HPM_P1;HPM_P2
2024/02/25 00:00:57;;;;;;;0.77;0.77;;;;;;;6.98;100.00;99964.34;5255104;28;20031;-74
2024/02/25 00:03:27;;;;;;;2.70;0.70;;;;;;;6.96;100.00;99966.31;5252994;28;20033;-74
2024/02/25 00:05:58;;;;;;;0.75;0.75;;;;;;;7.11;100.00;99958.50;5255077;28;20115;-74
2024/02/25 00:08:28;;;;;;;0.93;0.73;;;;;;;7.11;100.00;99957.66;5253227;28;20406;-74
2024/02/25 00:10:59;;;;;;;2.88;0.82;;;;;;;7.07;100.00;99961.66;5253864;28;20035;-74
2024/02/25 00:13:29;;;;;;;1.27;0.98;;;;;;;7.11;100.00;99957.66;5254171;28;20024;-74
2024/02/25 00:16:00;;;;;;;2.05;0.80;;;;;;;7.04;100.00;99964.66;5257100;28;20066;-74
2024/02/25 00:18:30;;;;;;;1.35;0.85;;;;;;;7.06;100.00;99971.50;5252993;28;20032;-74
2024/02/25 00:21:01;;;;;;;3.72;0.60;;;;;;;7.10;100.00;99969.34;5255542;28;20401;-74
2024/02/25 00:23:31;;;;;;;0.93;0.68;;;;;;;7.11;100.00;99966.50;5251598;28;20489;-74
2024/02/25 00:26:03;;;;;;;1.42;0.90;;;;;;;7.17;100.00;99970.34;5253433;28;20107;-74
2024/02/25 00:28:33;;;;;;;1.25;0.80;;;;;;;7.10;100.00;99966.66;5256219;28;20026;-74
2024/02/25 00:31:04;;;;;;;4.35;1.05;;;;;;;7.05;100.00;99967.16;5249319;28;20032;-74
2024/02/25 00:33:34;;;;;;;1.25;0.90;;;;;;;7.15;100.00;99973.19;5254929;28;20062;-74
2024/02/25 00:36:07;;;;;;;1.48;0.90;;;;;;;7.13;100.00;99975.19;5251018;28;20027;-74
2024/02/25 00:38:38;;;;;;;1.33;1.00;;;;;;;7.05;100.00;99969.00;5253619;28;20031;-74
2024/02/25 00:41:08;;;;;;;2.83;0.82;;;;;;;7.12;100.00;99973.50;5253476;28;20020;-74
2024/02/25 00:43:39;;;;;;;1.05;0.73;;;;;;;7.17;100.00;99970.34;5252277;28;20627;-74
2024/02/25 00:46:10;;;;;;;2.13;0.82;;;;;;;7.09;100.00;99975.69;5252160;28;20363;-74
2024/02/25 00:48:41;;;;;;;1.48;0.93;;;;;;;7.16;100.00;99974.00;5256351;28;20023;-74
2024/02/25 00:51:12;;;;;;;2.15;0.85;;;;;;;7.21;100.00;99969.00;5251129;28;20470;-74
2024/02/25 00:53:42;;;;;;;2.20;0.75;;;;;;;7.11;100.00;99963.00;5256757;28;20485;-74
2024/02/25 00:56:13;;;;;;;0.85;0.80;;;;;;;7.18;100.00;99966.69;5246821;28;20024;-74
2024/02/25 00:58:43;;;;;;;1.10;0.95;;;;;;;7.19;100.00;99968.34;5254757;28;20030;-74
2024/02/25 01:01:15;;;;;;;1.30;0.63;;;;;;;7.00;100.00;99966.81;5251544;28;20038;-74
2024/02/25 01:03:45;;;;;;;2.80;1.05;;;;;;;7.23;100.00;99969.69;5251042;28;20431;-74
2024/02/25 01:06:16;;;;;;;1.88;0.85;;;;;;;7.21;100.00;99974.34;5256629;28;20024;-74
2024/02/25 01:08:46;;;;;;;1.40;1.00;;;;;;;7.32;100.00;99967.84;5255675;28;20072;-74
2024/02/25 01:11:17;;;;;;;3.70;1.05;;;;;;;7.23;100.00;99969.69;5253571;28;20024;-74
2024/02/25 01:13:47;;;;;;;5.82;0.90;;;;;;;7.10;100.00;99972.84;5254561;28;20103;-74
2024/02/25 01:16:18;;;;;;;2.08;1.08;;;;;;;7.21;100.00;99963.69;5251667;28;20541;-74
2024/02/25 01:18:48;;;;;;;2.33;0.93;;;;;;;7.23;100.00;99975.03;5253590;28;20653;-74
2024/02/25 01:21:19;;;;;;;1.13;0.90;;;;;;;7.19;100.00;99965.69;5251284;28;20025;-74
2024/02/25 01:23:49;;;;;;;1.20;1.00;;;;;;;7.34;100.00;99968.53;5257033;28;20020;-74
2024/02/25 01:26:20;;;;;;;2.22;0.93;;;;;;;7.24;100.00;99960.69;5246120;28;20054;-74
2024/02/25 01:28:50;;;;;;;3.65;0.90;;;;;;;7.18;100.00;99966.69;5255222;28;20040;-75
2024/02/25 01:31:21;;;;;;;0.98;0.93;;;;;;;7.27;100.00;99961.16;5248586;28;20012;-74
2024/02/25 01:33:52;;;;;;;1.73;1.20;;;;;;;7.27;100.00;99960.34;5254475;28;20035;-74
2024/02/25 01:36:22;;;;;;;4.95;1.85;;;;;;;7.21;100.00;99958.34;5252383;28;20595;-75
2024/02/25 01:38:53;;;;;;;1.85;0.90;;;;;;;7.32;100.00;99954.50;5252836;28;20024;-74
2024/02/25 01:41:23;;;;;;;4.72;1.33;;;;;;;7.24;100.00;99960.69;5251454;28;20016;-74
2024/02/25 01:43:54;;;;;;;2.08;1.23;;;;;;;7.21;100.00;99958.34;5251950;28;20056;-74
2024/02/25 01:46:24;;;;;;;1.77;1.20;;;;;;;7.32;100.00;99960.66;5266113;28;20105;-74
2024/02/25 01:48:55;;;;;;;2.70;1.45;;;;;;;7.36;100.00;99958.50;5255525;28;20073;-75
2024/02/25 01:51:26;;;;;;;3.50;1.30;;;;;;;7.36;100.00;99959.34;5243654;28;20021;-74
2024/02/25 01:53:57;;;;;;;3.40;1.10;;;;;;;7.27;100.00;99955.00;5249127;28;20031;-75
2024/02/25 01:56:28;;;;;;;2.50;1.23;;;;;;;7.15;100.00;99954.50;5243784;28;20106;-74
2024/02/25 01:58:59;;;;;;;3.00;1.20;;;;;;;7.17;100.00;99954.31;5250274;28;20403;-74
2024/02/25 02:01:34;;;;;;;1.40;1.00;;;;;;;7.07;100.00;99959.81;5252686;28;20029;-75
2024/02/25 02:04:05;;;;;;;3.58;1.50;;;;;;;7.05;100.00;99953.00;5246790;28;20028;-75
2024/02/25 02:06:36;;;;;;;3.50;1.20;;;;;;;7.02;100.00;99948.81;5249619;28;20036;-74
2024/02/25 02:09:10;;;;;;;2.53;1.00;;;;;;;6.97;100.00;99948.47;5250468;28;20024;-74
2024/02/25 02:11:41;;;;;;;2.33;1.08;;;;;;;7.01;100.00;99942.66;5247952;28;20035;-74
2024/02/25 02:14:11;;;;;;;1.60;1.20;;;;;;;7.06;100.00;99949.31;5252124;28;20382;-74
2024/02/25 02:16:42;;;;;;;3.35;1.30;;;;;;;7.09;100.00;99941.84;5247158;28;20039;-74
2024/02/25 02:19:13;;;;;;;2.17;1.30;;;;;;;6.95;100.00;99940.66;5242269;28;20501;-74
2024/02/25 02:21:43;;;;;;;1.58;0.90;;;;;;;7.05;100.00;99948.50;5250146;28;20103;-75
2024/02/25 02:24:15;;;;;;;1.63;1.00;;;;;;;7.11;100.00;99944.31;5243013;28;20035;-75
2024/02/25 02:26:45;;;;;;;4.47;1.30;;;;;;;7.04;100.00;99940.66;5245369;28;20032;-75
2024/02/25 02:29:16;;;;;;;1.55;0.82;;;;;;;7.01;100.00;99939.97;5246294;28;20029;-75
2024/02/25 02:31:46;;;;;;;1.75;1.08;;;;;;;6.99;100.00;99942.00;5243334;28;20387;-75
2024/02/25 02:34:17;;;;;;;16.88;2.65;;;;;;;6.97;100.00;99948.47;5244637;28;20020;-75
2024/02/25 02:36:49;;;;;;;1.85;1.17;;;;;;;7.04;100.00;99943.34;5251791;28;20032;-75
2024/02/25 02:39:19;;;;;;;3.67;0.98;;;;;;;6.90;100.00;99940.31;5243929;28;20025;-74
2024/02/25 02:41:49;;;;;;;1.90;1.30;;;;;;;6.92;100.00;99937.47;5244061;28;20035;-75
2024/02/25 02:44:20;;;;;;;6.10;1.40;;;;;;;6.98;100.00;99937.66;5239896;28;20028;-75
2024/02/25 02:46:51;;;;;;;3.60;1.50;;;;;;;6.87;100.00;99937.13;5247850;28;20021;-75
2024/02/25 02:49:21;;;;;;;1.40;1.20;;;;;;;7.06;100.00;99942.16;5247432;28;20035;-75
2024/02/25 02:51:53;;;;;;;2.55;1.42;;;;;;;7.13;100.00;99936.97;5243354;28;20024;-75
2024/02/25 02:54:24;;;;;;;4.13;1.73;;;;;;;7.06;100.00;99941.31;5253043;28;20052;-75
2024/02/25 02:56:55;;;;;;;3.00;1.83;;;;;;;7.03;100.00;99938.97;5239373;28;20051;-75
2024/02/25 02:59:26;;;;;;;1.77;1.38;;;;;;;7.11;100.00;99936.31;5245234;28;20029;-75
2024/02/25 03:01:56;;;;;;;2.78;1.70;;;;;;;6.96;100.00;99936.97;5245870;28;20118;-75
2024/02/25 03:04:28;;;;;;;2.15;1.42;;;;;;;6.92;100.00;99934.81;5247443;28;20028;-75
2024/02/25 03:06:59;;;;;;;3.08;1.52;;;;;;;7.06;100.00;99931.50;5248677;28;20021;-75
2024/02/25 03:09:30;;;;;;;3.60;1.75;;;;;;;7.17;100.00;99935.66;5247857;28;20367;-75
2024/02/25 03:12:00;;;;;;;2.05;1.45;;;;;;;7.06;100.00;99934.16;5246988;28;20047;-75
2024/02/25 03:14:31;;;;;;;3.50;1.95;;;;;;;7.12;100.00;99938.00;5246384;28;20403;-75
2024/02/25 03:17:01;;;;;;;2.80;1.60;;;;;;;7.14;100.00;99928.00;5243107;28;20028;-75
2024/02/25 03:19:32;;;;;;;3.33;1.33;;;;;;;7.06;100.00;99936.00;5247774;28;20036;-75
2024/02/25 03:22:03;;;;;;;3.30;1.73;;;;;;;7.09;100.00;99933.00;5243767;28;20081;-75
2024/02/25 03:24:36;;;;;;;4.75;2.17;;;;;;;7.14;100.00;99939.50;5247782;28;20144;-75
2024/02/25 03:27:06;;;;;;;3.05;1.92;;;;;;;7.15;100.00;99935.00;5247916;28;20162;-75
2024/02/25 03:29:41;;;;;;;6.90;2.20;;;;;;;7.07;100.00;99938.47;5250642;28;20036;-75
2024/02/25 03:32:11;;;;;;;1.92;1.60;;;;;;;7.10;100.00;99940.00;5247935;28;20169;-75
2024/02/25 03:34:42;;;;;;;4.10;2.13;;;;;;;7.09;100.00;99941.00;5249059;28;20028;-75
2024/02/25 03:37:12;;;;;;;4.85;2.38;;;;;;;7.20;100.00;99940.66;5252423;28;20031;-75
2024/02/25 03:39:43;;;;;;;6.85;2.17;;;;;;;7.26;100.00;99943.50;5247091;28;20032;-75
2024/02/25 03:42:13;;;;;;;10.07;2.70;;;;;;;7.23;100.00;99937.69;5248825;28;20027;-75
2024/02/25 03:44:44;;;;;;;5.38;2.38;;;;;;;7.18;100.00;99932.84;5250238;28;20549;-75
2024/02/25 03:47:14;;;;;;;5.88;3.17;;;;;;;7.13;100.00;99939.66;5248755;28;20024;-75
2024/02/25 03:49:45;;;;;;;7.53;2.33;;;;;;;7.12;100.00;99932.66;5253981;28;20024;-75
2024/02/25 03:52:15;;;;;;;4.20;2.20;;;;;;;7.26;100.00;99940.81;5248113;28;20028;-75
2024/02/25 03:54:47;;;;;;;4.93;2.35;;;;;;;7.25;100.00;99941.84;5250551;28;20855;-75
2024/02/25 03:57:17;;;;;;;3.97;2.40;;;;;;;7.26;100.00;99943.50;5251038;28;20020;-75
2024/02/25 03:59:47;;;;;;;3.60;2.75;;;;;;;7.30;100.00;99946.69;5248429;28;20477;-75
2024/02/25 04:02:18;;;;;;;6.32;3.00;;;;;;;7.29;100.00;99939.69;5251669;28;20020;-75
2024/02/25 04:04:48;;;;;;;5.07;2.42;;;;;;;7.32;100.00;99944.66;5247805;28;20027;-73
2024/02/25 04:07:19;;;;;;;6.15;3.00;;;;;;;7.24;100.00;99942.84;5249048;28;20501;-74
2024/02/25 04:09:50;;;;;;;5.75;3.20;;;;;;;7.19;100.00;99944.34;5254965;28;20072;-74
2024/02/25 04:12:20;;;;;;;8.10;3.13;;;;;;;7.18;100.00;99951.50;5248922;28;20028;-74
2024/02/25 04:14:51;;;;;;;5.85;3.67;;;;;;;7.20;100.00;99943.34;5252954;28;20504;-74
2024/02/25 04:17:23;;;;;;;6.90;3.58;;;;;;;7.18;100.00;99951.50;5250393;28;20119;-74
2024/02/25 04:19:54;;;;;;;4.53;3.47;;;;;;;7.17;100.00;99954.31;5249197;28;20028;-74
2024/02/25 04:22:24;;;;;;;6.97;4.20;;;;;;;7.27;100.00;99957.66;5249854;28;20577;-74
2024/02/25 04:24:55;;;;;;;7.57;3.92;;;;;;;7.26;100.00;99953.34;5252199;28;20020;-74
2024/02/25 04:27:26;;;;;;;7.75;3.70;;;;;;;7.28;100.00;99948.69;5252704;28;20029;-74
2024/02/25 04:29:57;;;;;;;10.50;3.80;;;;;;;7.32;100.00;99957.16;5248199;28;20016;-74
2024/02/25 04:32:28;;;;;;;8.85;4.13;;;;;;;7.38;100.00;99959.16;5250254;28;20531;-74
2024/02/25 04:34:58;;;;;;;9.95;4.13;;;;;;;7.39;100.00;99956.34;5247777;28;20111;-73
2024/02/25 04:37:29;;;;;;;9.43;5.40;;;;;;;7.41;100.00;99957.00;5255632;28;20470;-74
2024/02/25 04:40:01;;;;;;;8.30;4.03;;;;;;;7.41;100.00;99954.34;5246544;28;20066;-74
2024/02/25 04:42:31;;;;;;;11.20;4.47;;;;;;;7.35;100.00;99963.00;5245999;28;20107;-74
2024/02/25 04:45:02;;;;;;;10.43;4.10;;;;;;;7.32;100.00;99958.00;5249988;28;20732;-74
2024/02/25 04:47:35;;;;;;;7.78;4.18;;;;;;;7.41;100.00;99964.19;5256419;28;20110;-74
2024/02/25 04:50:07;;;;;;;10.52;5.00;;;;;;;7.47;100.00;99955.50;5251999;28;20442;-73
2024/02/25 04:52:37;;;;;;;9.10;4.68;;;;;;;7.37;100.00;99966.34;5246362;28;20036;-73
2024/02/25 04:55:09;;;;;;;13.90;5.18;;;;;;;7.43;100.00;99968.38;5248051;28;20028;-74
2024/02/25 04:57:39;;;;;;;8.50;4.75;;;;;;;7.40;100.00;99966.00;5250459;28;20105;-74
2024/02/25 05:00:11;;;;;;;8.35;4.97;;;;;;;7.32;100.00;99959.84;5249550;28;20033;-74
2024/02/25 05:02:41;;;;;;;16.75;4.75;;;;;;;7.29;100.00;99968.19;5247874;28;20070;-74
2024/02/25 05:05:12;;;;;;;9.60;4.53;;;;;;;7.20;100.00;99968.19;5245385;28;20533;-74
2024/02/25 05:07:42;;;;;;;9.68;4.80;;;;;;;7.25;100.00;99962.34;5252227;28;20039;-74
2024/02/25 05:10:13;;;;;;;10.23;4.60;;;;;;;7.34;100.00;99961.34;5256423;28;20161;-74
2024/02/25 05:12:43;;;;;;;10.48;4.72;;;;;;;7.42;100.00;99966.66;5248091;28;20024;-73
2024/02/25 05:15:14;;;;;;;10.07;4.03;;;;;;;7.35;100.00;99968.34;5250060;28;20039;-74
2024/02/25 05:17:45;;;;;;;8.07;4.13;;;;;;;7.29;100.00;99968.19;5254128;28;20020;-74
2024/02/25 05:20:15;;;;;;;8.75;4.55;;;;;;;7.33;100.00;99967.69;5249950;28;20024;-75
2024/02/25 05:22:46;;;;;;;19.88;5.88;;;;;;;7.31;100.00;99972.34;5255838;28;20048;-74
2024/02/25 05:25:17;;;;;;;11.93;4.32;;;;;;;7.27;100.00;99969.16;5247920;28;20036;-78
2024/02/25 05:27:47;;;;;;;7.55;4.22;;;;;;;7.23;100.00;99980.38;5254253;28;20088;-74
2024/02/25 05:30:18;;;;;;;11.57;4.65;;;;;;;7.24;100.00;99982.03;5252563;28;20040;-75
2024/02/25 05:32:48;;;;;;;12.05;4.93;;;;;;;7.35;100.00;99987.03;5250635;28;20048;-74
2024/02/25 05:35:19;;;;;;;10.27;4.13;;;;;;;7.34;100.00;99981.88;5248229;28;20017;-74
2024/02/25 05:37:49;;;;;;;7.60;3.88;;;;;;;7.28;100.00;99980.69;5252828;28;20064;-76
2024/02/25 05:40:20;;;;;;;10.98;4.40;;;;;;;7.35;100.00;99987.03;5249835;28;20017;-75
2024/02/25 05:42:50;;;;;;;12.85;4.63;;;;;;;7.40;100.00;99984.69;5246378;28;20016;-74
2024/02/25 05:45:21;;;;;;;12.85;4.65;;;;;;;7.39;100.00;99982.19;5251752;28;20436;-74
2024/02/25 05:47:51;;;;;;;12.52;4.70;;;;;;;7.43;100.00;99978.19;5253235;28;20503;-75
2024/02/25 05:50:22;;;;;;;9.95;5.30;;;;;;;7.45;100.00;99984.19;5247877;28;20070;-79
2024/02/25 05:52:52;;;;;;;12.80;5.28;;;;;;;7.42;100.00;99988.03;5249889;28;20038;-77
2024/02/25 05:55:23;;;;;;;14.45;4.80;;;;;;;7.41;100.00;99991.69;5244962;28;20039;-76
2024/02/25 05:57:53;;;;;;;10.77;4.93;;;;;;;7.40;100.00;99987.38;5248535;28;20032;-74
2024/02/25 06:00:24;;;;;;;11.60;4.68;;;;;;;7.46;100.00;99985.84;5251713;28;20033;-77
2024/02/25 06:02:54;;;;;;;12.48;4.65;;;;;;;7.48;100.00;99990.03;5253268;28;20096;-76
2024/02/25 06:05:26;;;;;;;14.15;4.88;;;;;;;7.45;100.00;99989.53;5239458;28;20028;-75
2024/02/25 06:08:00;;;;;;;12.98;5.05;;;;;;;7.45;100.00;99994.88;5250801;28;20024;-74
2024/02/25 06:10:31;;;;;;;18.27;7.15;;;;;;;7.39;100.00;99999.03;5249130;28;20044;-74
2024/02/25 06:13:01;;;;;;;10.43;5.93;;;;;;;7.42;100.00;99998.69;5251518;28;20031;-75
2024/02/25 06:15:32;;;;;;;12.43;5.38;;;;;;;7.41;100.00;99996.19;5250149;28;20039;-75
2024/02/25 06:18:03;;;;;;;8.43;5.00;;;;;;;7.42;100.00;100008.53;5250595;28;20145;-78
2024/02/25 06:20:33;;;;;;;12.88;5.90;;;;;;;7.40;100.00;100014.06;5251058;28;20024;-74
2024/02/25 06:23:03;;;;;;;13.88;5.95;;;;;;;7.46;100.00;100009.88;5247582;28;20116;-74
2024/02/25 06:25:34;;;;;;;12.25;5.72;;;;;;;7.45;100.00;100016.22;5250010;28;20039;-75
2024/02/25 06:28:05;;;;;;;11.55;6.20;;;;;;;7.44;100.00;100014.56;5250321;28;20021;-74
2024/02/25 06:30:35;;;;;;;14.63;6.00;;;;;;;7.45;100.00;100021.56;5251083;28;20064;-76
2024/02/25 06:33:06;;;;;;;13.93;6.07;;;;;;;7.35;100.00;100010.22;5249632;28;20031;-74
2024/02/25 06:35:37;;;;;;;12.50;5.55;;;;;;;7.33;100.00;100020.19;5249593;28;20036;-74
2024/02/25 06:38:07;;;;;;;13.20;6.15;;;;;;;7.43;100.00;100024.41;5250770;28;20039;-76
2024/02/25 06:40:38;;;;;;;12.18;5.90;;;;;;;7.48;100.00;100019.41;5252896;28;20020;-74
2024/02/25 06:43:09;;;;;;;11.40;6.78;;;;;;;7.43;100.00;100021.72;5249138;28;20056;-76
2024/02/25 06:45:40;;;;;;;15.32;6.38;;;;;;;7.39;100.00;100020.38;5252481;28;20036;-74
2024/02/25 06:48:10;;;;;;;13.77;5.82;;;;;;;7.43;100.00;100028.88;5251399;28;20036;-75
2024/02/25 06:50:41;;;;;;;13.93;6.35;;;;;;;7.52;100.00;100033.22;5252726;28;20427;-79
2024/02/25 06:53:12;;;;;;;14.65;6.97;;;;;;;7.53;100.00;100033.09;5250057;28;20393;-76
2024/02/25 06:55:42;;;;;;;12.05;6.90;;;;;;;7.57;100.00;100033.56;5249111;28;20054;-74
2024/02/25 06:58:13;;;;;;;12.55;5.90;;;;;;;7.52;100.00;100038.56;5250284;28;20409;-74
2024/02/25 07:00:43;;;;;;;11.57;6.07;;;;;;;7.54;100.00;100033.91;5253068;28;20461;-77
2024/02/25 07:03:13;;;;;;;15.65;6.50;;;;;;;7.58;100.00;100037.94;5254218;28;20033;-76
2024/02/25 07:05:44;;;;;;;12.15;6.28;;;;;;;7.59;100.00;100030.75;5250351;28;20545;-78
2024/02/25 07:08:14;;;;;;;12.85;5.82;;;;;;;7.64;100.00;100041.75;5252496;28;20100;-74
2024/02/25 07:10:45;;;;;;;12.88;6.03;;;;;;;7.64;100.00;100039.91;5254561;28;20386;-74
2024/02/25 07:13:16;;;;;;;11.15;5.47;;;;;;;7.62;100.00;100043.75;5247288;28;20028;-76
2024/02/25 07:15:46;;;;;;;15.93;5.35;;;;;;;7.53;100.00;100046.44;5255525;28;20039;-74
2024/02/25 07:18:17;;;;;;;14.43;5.25;;;;;;;7.58;100.00;100040.59;5251817;28;20107;-75
2024/02/25 07:20:47;;;;;;;12.68;6.03;;;;;;;7.66;100.00;100043.25;5256042;28;20032;-76
2024/02/25 07:23:18;;;;;;;17.20;6.15;;;;;;;7.57;100.00;100049.56;5256197;28;20030;-77
2024/02/25 07:25:48;;;;;;;15.52;5.90;;;;;;;7.66;100.00;100050.41;5257096;28;20019;-74
2024/02/25 07:28:19;;;;;;;12.18;5.35;;;;;;;7.56;100.00;100047.09;5255926;28;20021;-74
2024/02/25 07:30:49;;;;;;;14.10;6.20;;;;;;;7.65;100.00;100046.09;5256851;28;20020;-78
2024/02/25 07:33:19;;;;;;;14.30;6.70;;;;;;;7.57;100.00;100046.91;5251959;28;20063;-75
2024/02/25 07:35:50;;;;;;;14.73;6.15;;;;;;;7.69;100.00;100050.94;5253198;28;20039;-79
2024/02/25 07:38:20;;;;;;;16.50;5.70;;;;;;;7.75;100.00;100049.44;5250119;28;20024;-75
2024/02/25 07:40:52;;;;;;;12.77;5.43;;;;;;;7.68;100.00;100048.41;5254038;28;20032;-75
2024/02/25 07:43:22;;;;;;;12.80;5.95;;;;;;;7.68;100.00;100059.94;5248442;28;20028;-75
2024/02/25 07:45:53;;;;;;;9.73;5.35;;;;;;;7.82;100.00;100049.56;5254025;28;20553;-75
2024/02/25 07:48:24;;;;;;;11.88;5.95;;;;;;;7.67;100.00;100062.75;5254864;28;20032;-75
2024/02/25 07:50:54;;;;;;;8.48;5.22;;;;;;;7.73;100.00;100062.09;5252304;28;20028;-77
2024/02/25 07:53:25;;;;;;;13.05;5.80;;;;;;;7.66;100.00;100059.25;5256090;28;20036;-75
2024/02/25 07:55:56;;;;;;;17.08;6.47;;;;;;;7.51;100.00;100052.91;5250007;28;20027;-76
2024/02/25 07:58:26;;;;;;;12.02;5.10;;;;;;;7.57;100.00;100059.41;5254968;28;20040;-75
2024/02/25 08:00:56;;;;;;;11.50;6.05;;;;;;;7.45;100.00;100059.75;5252668;28;20028;-77
2024/02/25 08:03:27;;;;;;;11.30;5.47;;;;;;;7.34;100.00;100061.91;5267209;28;20497;-77
2024/02/25 08:05:57;;;;;;;12.02;5.80;;;;;;;7.32;100.00;100062.06;5252999;28;20028;-75
2024/02/25 08:08:28;;;;;;;17.65;5.80;;;;;;;7.40;100.00;100051.41;5252672;28;20084;-75
2024/02/25 08:10:58;;;;;;;13.30;5.80;;;;;;;7.49;100.00;100052.25;5251901;28;20524;-75
2024/02/25 08:13:29;;;;;;;19.05;6.28;;;;;;;7.66;100.00;100055.75;5254227;28;20044;-76
2024/02/25 08:15:59;;;;;;;13.18;6.45;;;;;;;7.61;100.00;100063.44;5254179;28;20047;-75
2024/02/25 08:18:30;;;;;;;14.05;5.97;;;;;;;7.39;100.00;100062.25;5252015;28;20086;-75
2024/02/25 08:21:02;;;;;;;14.38;5.63;;;;;;;7.41;100.00;100066.41;5253685;28;20077;-75
2024/02/25 08:23:32;;;;;;;15.18;6.63;;;;;;;7.66;100.00;100069.94;5250702;28;20123;-75
2024/02/25 08:26:03;;;;;;;15.90;6.30;;;;;;;7.93;100.00;100067.94;5251962;28;20111;-74
2024/02/25 08:28:35;;;;;;;16.15;5.50;;;;;;;8.03;100.00;100069.44;5255017;28;20032;-75
2024/02/25 08:31:06;;;;;;;8.57;4.72;;;;;;;8.04;100.00;100070.28;5250429;28;20043;-74
2024/02/25 08:33:38;;;;;;;12.88;5.72;;;;;;;8.03;100.00;100069.44;5254488;28;20044;-74
2024/02/25 08:36:09;;;;;;;12.23;5.40;;;;;;;8.43;100.00;100065.03;5248707;28;20432;-75
2024/02/25 08:38:41;;;;;;;8.27;4.93;;;;;;;8.68;100.00;100075.66;5253645;28;20023;-74
2024/02/25 08:41:11;;;;;;;16.98;4.72;;;;;;;8.75;100.00;100074.81;5251475;28;20028;-75
2024/02/25 08:43:42;;;;;;;10.10;4.97;;;;;;;8.67;100.00;100072.16;5252165;28;20032;-74
2024/02/25 08:46:12;;;;;;;7.00;4.80;;;;;;;9.04;100.00;100076.84;5250837;28;20033;-75
2024/02/25 08:48:43;;;;;;;8.85;4.20;;;;;;;9.16;100.00;100079.97;5256379;28;20031;-74
2024/02/25 08:51:13;;;;;;;12.23;4.38;;;;;;;8.95;100.00;100083.25;5248552;28;20420;-74
2024/02/25 08:53:44;;;;;;;10.70;4.35;;;;;;;9.07;100.00;100081.00;5256436;28;20032;-74
2024/02/25 08:56:14;;;;;;;9.43;3.78;;;;;;;9.17;100.00;100083.47;5247679;28;20029;-74
2024/02/25 08:58:45;;;;;;;6.78;3.20;;;;;;;9.02;100.00;100086.88;5255095;28;20024;-74
2024/02/25 09:01:15;;;;;;;8.35;3.58;;;;;;;9.07;100.00;100089.03;5252462;28;20021;-74
2024/02/25 09:03:46;;;;;;;11.80;4.00;;;;;;;9.10;100.00;100087.88;5250903;28;20504;-74
2024/02/25 09:06:17;;;;;;;8.27;4.15;;;;;;;9.27;100.00;100084.91;5252525;28;20031;-74
2024/02/25 09:08:48;;;;;;;7.38;3.78;;;;;;;9.36;100.00;100085.69;5252739;28;20043;-74
2024/02/25 09:11:19;;;;;;;13.60;3.83;;;;;;;9.40;100.00;100083.50;5250942;28;20474;-75
2024/02/25 09:13:51;;;;;;;9.07;3.45;;;;;;;9.54;100.00;100078.22;5254381;28;20405;-74
2024/02/25 09:16:21;;;;;;;9.07;3.30;;;;;;;9.45;100.00;100081.97;5252684;28;20024;-73
2024/02/25 09:18:52;;;;;;;6.97;2.70;;;;;;;9.47;100.00;100079.94;5248208;28;20032;-73
2024/02/25 09:21:22;;;;;;;7.15;2.85;;;;;;;9.65;100.00;100076.97;5244718;28;20036;-73
2024/02/25 09:23:53;;;;;;;10.80;2.80;;;;;;;9.45;100.00;100076.59;5250924;28;20115;-73
2024/02/25 09:26:23;;;;;;;14.13;3.03;;;;;;;10.38;100.00;100078.19;5245286;28;20119;-74
2024/02/25 09:28:54;;;;;;;8.63;2.80;;;;;;;10.69;100.00;100075.31;5254490;28;20031;-74
2024/02/25 09:31:24;;;;;;;10.38;2.20;;;;;;;10.40;100.00;100075.34;5248651;28;20091;-74
2024/02/25 09:33:55;;;;;;;9.60;3.00;;;;;;;9.75;100.00;100074.06;5253589;28;20024;-73
2024/02/25 09:36:26;;;;;;;6.70;2.60;;;;;;;9.73;100.00;100073.38;5256471;28;20711;-74
2024/02/25 09:38:57;;;;;;;5.53;2.47;;;;;;;10.21;100.00;100076.66;5259097;28;20024;-74
2024/02/25 09:41:29;;;;;;;5.10;2.08;;;;;;;10.65;100.00;100074.03;5253308;28;20017;-73
2024/02/25 09:44:01;;;;;;;5.07;2.10;;;;;;;10.70;100.00;100079.69;5246540;28;20461;-74
2024/02/25 09:46:33;;;;;;;8.20;1.90;;;;;;;10.73;100.00;100071.25;5255090;28;20546;-74
2024/02/25 09:49:06;;;;;;;9.50;2.50;;;;;;;10.24;100.00;100065.59;5258583;28;20036;-74
2024/02/25 09:51:39;;;;;;;5.65;2.38;;;;;;;10.15;100.00;100074.72;5251459;28;20064;-74
2024/02/25 09:54:10;;;;;;;4.75;1.98;;;;;;;9.60;100.00;100074.00;5255549;28;20044;-74
2024/02/25 09:56:45;;;;;;;5.05;2.05;;;;;;;9.45;100.00;100073.94;5256100;28;20397;-74
2024/02/25 09:59:16;;;;;;;6.68;2.90;;;;;;;9.42;100.00;100076.94;5259846;28;20059;-74
2024/02/25 10:01:47;;;;;;;9.98;2.72;;;;;;;9.55;100.00;100071.84;5253949;28;20032;-74
2024/02/25 10:04:18;;;;;;;8.50;2.28;;;;;;;9.62;100.00;100073.81;5253559;28;20077;-74
2024/02/25 10:06:49;;;;;;;7.57;2.33;;;;;;;9.84;100.00;100070.31;5252933;28;20063;-74
2024/02/25 10:09:29;;;;;;;8.60;2.40;;;;;;;9.72;100.00;100067.19;5256896;28;20513;-74
2024/02/25 10:12:00;;;;;;;9.43;2.30;;;;;;;9.66;100.00;100069.75;5257838;28;20032;-73
2024/02/25 10:14:31;;;;;;;7.90;1.88;;;;;;;9.77;100.00;100075.53;5257373;28;20033;-74
2024/02/25 10:17:03;;;;;;;6.72;2.20;;;;;;;9.99;100.00;100065.81;5256281;28;20037;-74
2024/02/25 10:19:34;;;;;;;5.70;2.40;;;;;;;10.34;100.00;100071.50;5260947;28;20411;-74
2024/02/25 10:22:06;;;;;;;6.40;2.30;;;;;;;10.19;100.00;100067.94;5257879;28;20030;-74
2024/02/25 10:24:40;;;;;;;9.77;2.08;;;;;;;10.07;100.00;100073.75;5259071;28;20035;-74
2024/02/25 10:27:12;;;;;;;6.07;2.13;;;;;;;10.27;100.00;100073.28;5255282;28;20530;-74
2024/02/25 10:29:51;;;;;;;6.13;1.80;;;;;;;10.33;100.00;100070.69;5250577;28;20032;-74
2024/02/25 10:32:25;;;;;;;5.78;2.47;;;;;;;10.10;100.00;100067.22;5258811;28;20030;-74
2024/02/25 10:34:58;;;;;;;3.85;1.90;;;;;;;10.45;100.00;100070.25;5256473;28;20423;-73
2024/02/25 10:37:30;;;;;;;5.13;1.63;;;;;;;10.64;100.00;100050.91;5257215;28;20035;-73
2024/02/25 10:40:05;;;;;;;11.73;2.63;;;;;;;10.55;100.00;100046.66;5252817;28;20102;-74
2024/02/25 10:42:43;;;;;;;5.70;1.92;;;;;;;10.83;100.00;100046.81;5251896;28;20073;-74
2024/02/25 10:45:16;;;;;;;8.52;1.88;;;;;;;10.67;100.00;100047.03;5255886;28;20043;-74
2024/02/25 10:47:47;;;;;;;9.43;1.85;;;;;;;10.56;100.00;100051.84;5258029;28;20505;-73
2024/02/25 10:50:20;;;;;;;4.70;1.50;;;;;;;10.56;100.00;100057.19;5254511;28;20024;-73
2024/02/25 10:52:52;;;;;;;8.65;2.67;;;;;;;10.32;100.00;100052.94;5255417;28;20024;-72
2024/02/25 10:55:25;;;;;;;11.55;2.03;;;;;;;10.52;100.00;100053.22;5254219;28;20081;-74
2024/02/25 10:57:58;;;;;;;10.32;2.00;;;;;;;10.77;100.00;100047.56;5253325;28;20038;-74
2024/02/25 11:00:29;;;;;;;4.88;1.85;;;;;;;10.51;100.00;100051.56;5255318;28;20056;-74
2024/02/25 11:03:02;;;;;;;7.30;2.08;;;;;;;10.48;100.00;100056.44;5256521;28;20020;-74
2024/02/25 11:05:32;;;;;;;2.83;1.10;;;;;;;10.66;100.00;100048.03;5255241;28;20119;-73
2024/02/25 11:08:03;;;;;;;5.95;1.67;;;;;;;10.59;100.00;100045.25;5259241;28;20430;-72
2024/02/25 11:10:36;;;;;;;4.97;1.60;;;;;;;10.30;100.00;100041.56;5256444;28;20035;-74
2024/02/25 11:13:11;;;;;;;6.28;1.30;;;;;;;10.13;100.00;100038.19;5255187;28;20085;-74
2024/02/25 11:15:48;;;;;;;4.97;1.10;;;;;;;10.38;100.00;100035.28;5258006;28;20059;-74
2024/02/25 11:18:26;;;;;;;4.78;1.30;;;;;;;10.63;100.00;100033.97;5255244;28;20062;-74
2024/02/25 11:21:04;;;;;;;9.68;1.30;;;;;;;10.63;100.00;100030.47;5261615;28;20016;-73
2024/02/25 11:23:43;;;;;;;6.53;1.70;;;;;;;10.32;100.00;100034.16;5260068;28;20494;-73
2024/02/25 11:26:33;;;;;;;8.88;1.67;;;;;;;10.70;100.00;100034.06;5255281;28;20099;-74
2024/02/25 11:29:18;;;;;;;5.97;1.23;;;;;;;10.17;100.00;100032.47;5255989;28;20535;-74
2024/02/25 11:31:50;;;;;;;;;;;;;;;10.24;100.00;100034.28;5254823;28;20077;-73
2024/02/25 11:34:23;;;;;;;10.60;1.35;;;;;;;10.65;100.00;100031.13;5254377;28;19923;-72
2024/02/25 11:36:55;;;;;;;5.65;1.67;;;;;;;10.45;100.00;100033.53;5261598;28;20032;-74
2024/02/25 11:39:28;;;;;;;6.15;1.80;;;;;;;10.59;100.00;100021.97;5246799;28;20405;-74
2024/02/25 11:42:05;;;;;;;5.30;1.52;;;;;;;10.97;100.00;100013.75;5250859;28;20051;-74
2024/02/25 11:44:36;;;;;;;4.85;2.03;;;;;;;11.03;100.00;100010.31;5249819;28;20557;-74